createdAt,value
2018-04-17T00:00:43.759Z,7.53
2018-04-17T00:03:13.344Z,7.80
2018-04-17T00:05:42.926Z,7.83
2018-04-17T00:08:12.558Z,7.60
2018-04-17T00:10:42.134Z,8.27
2018-04-17T00:13:11.700Z,7.47
2018-04-17T00:15:41.070Z,9.50
2018-04-17T00:18:11.045Z,9.57
2018-04-17T00:20:40.619Z,9.73
2018-04-17T00:23:10.196Z,9.73
2018-04-17T00:25:40.186Z,10.63
2018-04-17T00:28:09.763Z,9.63
2018-04-17T00:30:39.347Z,9.77
2018-04-17T00:33:08.929Z,10.80
2018-04-17T00:35:38.703Z,11.17
2018-04-17T00:38:08.282Z,10.23
2018-04-17T00:40:37.863Z,10.83
2018-04-17T00:43:07.843Z,11.83
2018-04-17T00:45:37.453Z,13.43
2018-04-17T00:48:07.032Z,13.10
2018-04-17T00:50:36.610Z,14.23
2018-04-17T00:53:22.805Z,15.87
2018-04-17T00:55:52.779Z,15.93
2018-04-17T00:58:22.381Z,16.33
2018-04-17T01:00:51.709Z,14.30
2018-04-17T01:03:21.285Z,14.00
2018-04-17T01:05:50.863Z,13.60
2018-04-17T01:08:20.437Z,12.27
2018-04-17T01:10:50.417Z,11.00
2018-04-17T01:13:20.004Z,11.33
2018-04-17T01:15:49.608Z,11.60
2018-04-17T01:18:19.195Z,11.00
2018-04-17T01:20:48.773Z,10.63
2018-04-17T01:23:18.353Z,10.27
2018-04-17T01:25:47.937Z,9.77
2018-04-17T01:28:17.515Z,10.20
2018-04-17T01:30:47.511Z,9.83
2018-04-17T01:33:17.091Z,9.40
2018-04-17T01:35:46.682Z,10.23
2018-04-17T01:38:16.892Z,11.93
2018-04-17T01:40:46.478Z,13.27
2018-04-17T01:43:16.455Z,13.27
2018-04-17T01:45:46.052Z,10.83
2018-04-17T01:48:15.640Z,10.43
2018-04-17T01:50:45.250Z,11.00
2018-04-17T01:53:14.835Z,11.80
2018-04-17T01:55:44.418Z,12.97
2018-04-17T01:58:14.406Z,11.93
2018-04-17T02:00:43.991Z,12.87
2018-04-17T02:03:13.580Z,13.30
2018-04-17T02:05:42.826Z,13.73
2018-04-17T02:08:12.411Z,11.03
2018-04-17T02:10:41.997Z,10.83
2018-04-17T02:13:11.588Z,10.70
2018-04-17T02:15:41.555Z,9.53
2018-04-17T02:18:11.142Z,9.57
2018-04-17T02:20:40.481Z,9.87
2018-04-17T02:23:10.057Z,9.53
2018-04-17T02:25:39.638Z,9.90
2018-04-17T02:28:09.216Z,10.10
2018-04-17T02:30:38.798Z,10.37
2018-04-17T02:33:08.386Z,10.77
2018-04-17T02:35:37.973Z,11.43
2018-04-17T02:38:07.549Z,12.33
2018-04-17T02:40:37.130Z,13.87
2018-04-17T02:43:06.714Z,16.33
2018-04-17T02:45:36.309Z,15.63
2018-04-17T02:48:05.896Z,15.57
2018-04-17T02:50:35.655Z,16.87
2018-04-17T02:53:05.254Z,17.13
2018-04-17T02:55:34.832Z,14.27
2018-04-17T02:58:04.411Z,13.03
2018-04-17T03:00:33.994Z,13.27
2018-04-17T03:03:03.579Z,12.47
2018-04-17T03:05:33.186Z,14.53
2018-04-17T03:08:02.765Z,16.03
2018-04-17T03:10:32.352Z,15.40
2018-04-17T03:13:01.934Z,15.47
2018-04-17T03:15:31.526Z,17.77
2018-04-17T03:18:01.158Z,19.77
2018-04-17T03:20:31.154Z,18.23
2018-04-17T03:23:00.744Z,16.97
2018-04-17T03:25:30.330Z,17.57
2018-04-17T03:27:59.683Z,19.13
2018-04-17T03:30:29.033Z,19.93
2018-04-17T03:32:58.395Z,20.77
2018-04-17T03:35:27.986Z,17.90
2018-04-17T03:37:57.589Z,17.50
2018-04-17T03:40:27.164Z,16.67
2018-04-17T03:42:56.756Z,14.60
2018-04-17T03:45:26.732Z,13.50
2018-04-17T03:47:56.328Z,14.93
2018-04-17T03:50:25.927Z,15.23
2018-04-17T03:52:55.509Z,15.27
2018-04-17T03:55:25.102Z,14.23
2018-04-17T03:57:55.084Z,13.60
2018-04-17T04:00:24.654Z,14.10
2018-04-17T04:02:54.460Z,13.27
2018-04-17T04:05:24.050Z,13.87
2018-04-17T04:07:54.018Z,14.83
2018-04-17T04:10:23.600Z,15.03
2018-04-17T04:12:53.188Z,16.33
2018-04-17T04:15:22.786Z,15.57
2018-04-17T04:18:09.413Z,16.80
2018-04-17T04:20:55.936Z,18.63
2018-04-17T04:26:36.579Z,18.77
2018-04-17T04:29:06.558Z,19.63
2018-04-17T04:31:36.200Z,18.47
2018-04-17T04:34:06.543Z,20.53
2018-04-17T04:36:36.153Z,20.77
2018-04-17T04:39:04.842Z,19.20
2018-04-17T04:41:34.458Z,22.37
2018-04-17T04:44:04.043Z,19.97
2018-04-17T04:46:34.021Z,20.90
2018-04-17T04:49:03.607Z,21.57
2018-04-17T04:51:33.181Z,20.67
2018-04-17T04:54:03.168Z,20.63
2018-04-17T04:56:32.760Z,17.47
2018-04-17T04:59:02.346Z,21.20
2018-04-17T05:01:31.939Z,19.77
2018-04-17T05:04:01.565Z,18.13
2018-04-17T05:06:31.171Z,20.47
2018-04-17T05:09:00.769Z,19.27
2018-04-17T05:11:30.373Z,18.33
2018-04-17T05:13:59.733Z,18.10
2018-04-17T05:16:28.992Z,15.97
2018-04-17T05:18:58.501Z,16.03
2018-04-17T05:21:28.013Z,16.57
2018-04-17T05:23:57.551Z,16.67
2018-04-17T05:26:27.235Z,16.27
2018-04-17T05:28:56.736Z,16.17
2018-04-17T05:31:26.250Z,16.60
2018-04-17T05:33:55.770Z,16.47
2018-04-17T05:36:25.288Z,16.20
2018-04-17T05:38:54.824Z,16.53
2018-04-17T05:41:24.344Z,16.23
2018-04-17T05:43:53.858Z,16.57
2018-04-17T05:46:23.361Z,14.27
2018-04-17T05:48:52.932Z,14.97
2018-04-17T05:51:22.832Z,15.97
2018-04-17T05:53:52.922Z,14.27
2018-04-17T05:56:22.438Z,15.40
2018-04-17T05:58:51.718Z,16.00
2018-04-17T06:01:20.999Z,15.83
2018-04-17T06:03:50.518Z,15.30
2018-04-17T06:06:20.039Z,15.47
2018-04-17T06:08:49.552Z,15.83
2018-04-17T06:11:19.054Z,18.00
2018-04-17T06:13:48.606Z,17.57
2018-04-17T06:16:18.118Z,18.63
2018-04-17T06:18:47.647Z,20.43
2018-04-17T06:21:17.156Z,21.43
2018-04-17T06:23:46.704Z,19.10
2018-04-17T06:26:16.225Z,21.40
2018-04-17T06:28:46.128Z,19.07
2018-04-17T06:31:16.050Z,21.80
2018-04-17T06:33:45.943Z,19.40
2018-04-17T06:36:15.448Z,21.27
2018-04-17T06:38:44.958Z,19.73
2018-04-17T06:41:14.467Z,21.70
2018-04-17T06:43:43.755Z,21.90
2018-04-17T06:46:13.260Z,19.13
2018-04-17T06:48:42.765Z,20.30
2018-04-17T06:51:12.288Z,18.40
2018-04-17T06:53:41.997Z,30.13
2018-04-17T06:56:11.499Z,21.37
2018-04-17T06:58:41.010Z,21.83
2018-04-17T07:01:10.514Z,20.27
2018-04-17T07:03:40.019Z,17.77
2018-04-17T07:06:09.528Z,19.03
2018-04-17T07:08:39.024Z,19.37
2018-04-17T07:11:08.527Z,17.67
2018-04-17T07:13:38.064Z,18.33
2018-04-17T07:16:07.992Z,20.20
2018-04-17T07:18:37.495Z,18.27
2018-04-17T07:21:06.668Z,18.17
2018-04-17T07:23:36.603Z,21.20
2018-04-17T07:26:06.286Z,22.53
2018-04-17T07:28:35.803Z,28.33
2018-04-17T07:31:05.720Z,23.07
2018-04-17T07:33:35.619Z,26.33
2018-04-17T07:36:05.176Z,26.07
2018-04-17T07:38:34.688Z,27.77
2018-04-17T07:41:03.970Z,27.03
2018-04-17T07:43:33.475Z,26.23
2018-04-17T07:46:03.010Z,25.77
2018-04-17T07:48:46.505Z,24.93
2018-04-17T07:51:16.419Z,23.93
2018-04-17T07:53:46.324Z,22.27
2018-04-17T07:56:16.021Z,25.47
2018-04-17T07:58:45.518Z,25.13
2018-04-17T08:01:15.033Z,25.23
2018-04-17T08:03:44.541Z,25.50
2018-04-17T08:06:14.044Z,27.97
2018-04-17T08:08:43.545Z,25.63
2018-04-17T08:11:13.051Z,27.33
2018-04-17T08:13:42.564Z,27.47
2018-04-17T08:16:12.070Z,25.47
2018-04-17T08:18:41.576Z,24.57
2018-04-17T08:21:11.084Z,25.10
2018-04-17T08:23:40.604Z,24.30
2018-04-17T08:26:10.498Z,22.67
2018-04-17T08:28:40.014Z,23.43
2018-04-17T08:31:09.924Z,24.03
2018-04-17T08:33:39.635Z,24.53
2018-04-17T08:36:09.144Z,24.93
2018-04-17T08:38:38.645Z,25.23
2018-04-17T08:41:08.141Z,24.33
2018-04-17T08:43:37.841Z,22.93
2018-04-17T08:46:07.336Z,23.13
2018-04-17T08:48:36.850Z,22.70
2018-04-17T08:51:06.556Z,22.53
2018-04-17T08:53:36.070Z,23.20
2018-04-17T08:56:05.575Z,24.77
2018-04-17T08:58:35.086Z,25.60
2018-04-17T09:01:04.612Z,23.77
2018-04-17T09:03:34.526Z,24.00
2018-04-17T09:06:04.420Z,23.13
2018-04-17T09:08:33.922Z,23.60
2018-04-17T09:11:03.451Z,23.77
2018-04-17T09:13:33.348Z,24.70
2018-04-17T09:16:02.862Z,23.70
2018-04-17T09:18:32.794Z,23.20
2018-04-17T09:21:02.705Z,22.63
2018-04-17T09:23:32.609Z,19.70
2018-04-17T09:26:02.131Z,19.87
2018-04-17T09:28:32.083Z,17.97
2018-04-17T09:31:01.586Z,17.23
2018-04-17T09:33:31.099Z,19.43
2018-04-17T09:36:00.619Z,12.70
2018-04-17T09:38:30.307Z,11.10
2018-04-17T09:40:59.824Z,11.13
2018-04-17T09:43:29.325Z,12.43
2018-04-17T09:45:58.832Z,12.87
2018-04-17T09:48:28.342Z,12.57
2018-04-17T09:50:57.854Z,12.47
2018-04-17T09:53:27.132Z,11.83
2018-04-17T09:55:56.628Z,12.60
2018-04-17T09:58:26.134Z,13.30
2018-04-17T10:00:59.534Z,13.13
2018-04-17T10:03:29.046Z,11.10
2018-04-17T10:05:58.562Z,12.40
2018-04-17T10:08:28.073Z,11.17
2018-04-17T10:10:57.634Z,11.37
2018-04-17T10:13:27.552Z,12.03
2018-04-17T10:15:57.462Z,11.73
2018-04-17T10:18:27.358Z,11.43
2018-04-17T10:20:56.884Z,11.23
2018-04-17T10:23:26.899Z,10.53
2018-04-17T10:25:56.822Z,10.70
2018-04-17T10:28:26.726Z,10.17
2018-04-17T10:30:56.675Z,10.10
2018-04-17T10:33:26.170Z,9.77
2018-04-17T10:35:55.674Z,8.90
2018-04-17T10:38:25.169Z,9.97
2018-04-17T10:40:55.085Z,10.77
2018-04-17T10:43:25.016Z,10.17
2018-04-17T10:45:54.525Z,10.00
2018-04-17T10:48:24.027Z,9.53
2018-04-17T10:50:53.727Z,8.60
2018-04-17T10:53:23.631Z,8.80
2018-04-17T10:55:53.517Z,8.73
2018-04-17T10:58:23.006Z,8.73
2018-04-17T11:00:52.520Z,8.63
2018-04-17T11:03:22.045Z,8.47
2018-04-17T11:05:51.736Z,8.27
2018-04-17T11:08:21.477Z,7.93
2018-04-17T11:10:51.026Z,7.63
2018-04-17T11:13:20.531Z,6.50
2018-04-17T11:15:50.056Z,7.30
2018-04-17T11:18:19.556Z,6.83
2018-04-17T11:20:49.057Z,7.27
2018-04-17T11:23:18.556Z,6.37
2018-04-17T11:25:48.054Z,5.80
2018-04-17T11:28:17.562Z,6.53
2018-04-17T11:30:47.066Z,5.60
2018-04-17T11:33:16.579Z,5.57
2018-04-17T11:35:46.974Z,5.20
2018-04-17T11:38:16.864Z,5.93
2018-04-17T11:40:46.370Z,5.30
2018-04-17T11:43:15.641Z,4.77
2018-04-17T11:45:45.145Z,4.90
2018-04-17T11:48:14.628Z,4.30
2018-04-17T11:50:44.157Z,4.70
2018-04-17T11:53:13.648Z,4.27
2018-04-17T11:55:43.146Z,3.27
2018-04-17T11:58:12.633Z,3.90
2018-04-17T12:00:42.138Z,3.13
2018-04-17T12:03:12.052Z,3.77
2018-04-17T12:05:42.111Z,2.95
2018-04-17T12:08:11.600Z,3.20
2018-04-17T12:10:40.867Z,2.87
2018-04-17T12:13:10.535Z,3.70
2018-04-17T12:15:40.073Z,2.80
2018-04-17T12:18:09.574Z,2.73
2018-04-17T12:20:39.173Z,2.57
2018-04-17T12:23:09.224Z,2.60
2018-04-17T12:25:38.726Z,2.92
2018-04-17T12:28:08.795Z,2.30
2018-04-17T12:30:39.237Z,2.33
2018-04-17T12:33:08.729Z,2.47
2018-04-17T12:35:39.213Z,2.65
2018-04-17T12:38:09.261Z,2.40
2018-04-17T12:40:39.324Z,2.30
2018-04-17T12:43:09.387Z,2.58
2018-04-17T12:45:39.483Z,2.40
2018-04-17T12:48:09.538Z,2.90
2018-04-17T12:50:39.588Z,2.75
2018-04-17T12:53:09.642Z,2.30
2018-04-17T12:55:39.704Z,2.40
2018-04-17T12:58:10.338Z,2.00
2018-04-17T13:00:40.800Z,2.00
2018-04-17T13:03:11.058Z,2.20
2018-04-17T13:05:41.115Z,2.10
2018-04-17T13:08:11.174Z,2.40
2018-04-17T13:10:41.232Z,2.10
2018-04-17T13:13:11.278Z,2.12
2018-04-17T13:15:41.385Z,2.40
2018-04-17T13:18:11.600Z,2.20
2018-04-17T13:20:42.251Z,2.10
2018-04-17T13:23:12.698Z,2.00
2018-04-17T13:25:42.765Z,2.33
2018-04-17T13:28:12.811Z,2.00
2018-04-17T13:30:43.254Z,2.35
2018-04-17T13:33:13.289Z,1.80
2018-04-17T13:35:43.343Z,1.87
2018-04-17T13:38:13.409Z,1.92
2018-04-17T13:40:43.457Z,1.42
2018-04-17T13:43:13.514Z,1.70
2018-04-17T13:45:43.561Z,1.48
2018-04-17T13:48:13.609Z,1.50
2018-04-17T13:50:43.663Z,1.85
2018-04-17T13:53:13.719Z,1.67
2018-04-17T13:55:43.783Z,1.83
2018-04-17T13:58:13.825Z,1.40
2018-04-17T14:00:43.874Z,1.70
2018-04-17T14:03:13.928Z,1.80
2018-04-17T14:05:43.991Z,1.52
2018-04-17T14:08:14.438Z,1.50
2018-04-17T14:10:44.724Z,1.70
2018-04-17T14:13:14.781Z,1.62
2018-04-17T14:15:45.474Z,1.85
2018-04-17T14:18:15.513Z,2.20
2018-04-17T14:20:46.065Z,2.00
2018-04-17T14:23:16.139Z,1.80
2018-04-17T14:25:46.209Z,1.90
2018-04-17T14:28:16.270Z,1.90
2018-04-17T14:30:46.314Z,1.75
2018-04-17T14:33:16.781Z,2.08
2018-04-17T14:35:46.529Z,2.20
2018-04-17T14:38:16.574Z,1.70
2018-04-17T14:40:47.034Z,1.70
2018-04-17T14:43:17.668Z,2.00
2018-04-17T14:45:47.745Z,1.83
2018-04-17T14:48:18.193Z,1.70
2018-04-17T14:50:48.007Z,1.65
2018-04-17T14:53:18.045Z,1.90
2018-04-17T14:55:48.119Z,2.15
2018-04-17T14:58:18.559Z,1.80
2018-04-17T15:00:49.005Z,1.75
2018-04-17T15:03:19.069Z,2.17
2018-04-17T15:05:49.163Z,1.65
2018-04-17T15:08:19.231Z,1.65
2018-04-17T15:10:49.312Z,1.67
2018-04-17T15:13:19.364Z,1.60
2018-04-17T15:15:49.427Z,1.17
2018-04-17T15:18:19.485Z,1.50
2018-04-17T15:20:49.551Z,1.35
2018-04-17T15:23:19.798Z,1.42
2018-04-17T15:25:49.867Z,2.03
2018-04-17T15:28:20.317Z,1.90
2018-04-17T15:30:50.373Z,1.70
2018-04-17T15:33:20.432Z,1.70
2018-04-17T15:35:50.879Z,1.73
2018-04-17T15:38:20.981Z,1.92
2018-04-17T15:40:51.197Z,1.98
2018-04-17T15:43:21.251Z,2.72
2018-04-17T15:45:51.331Z,1.92
2018-04-17T15:48:21.072Z,1.30
2018-04-17T15:50:51.357Z,2.10
2018-04-17T15:53:21.169Z,1.90
2018-04-17T15:55:51.279Z,2.10
2018-04-17T15:58:21.332Z,1.62
2018-04-17T16:00:51.791Z,1.70
2018-04-17T16:03:21.879Z,1.80
2018-04-17T16:05:52.125Z,1.60
2018-04-17T16:08:22.191Z,1.85
2018-04-17T16:10:52.263Z,1.85
2018-04-17T16:13:22.332Z,2.08
2018-04-17T16:15:52.389Z,1.87
2018-04-17T16:18:22.451Z,2.12
2018-04-17T16:20:52.508Z,1.95
2018-04-17T16:23:22.885Z,2.40
2018-04-17T16:25:52.942Z,2.30
2018-04-17T16:28:23.011Z,2.00
2018-04-17T16:30:53.078Z,2.10
2018-04-17T16:33:23.157Z,2.28
2018-04-17T16:35:53.219Z,2.30
2018-04-17T16:38:23.280Z,2.33
2018-04-17T16:40:53.124Z,2.20
2018-04-17T16:43:23.178Z,1.87
2018-04-17T16:45:52.678Z,1.65
2018-04-17T16:48:22.744Z,2.20
2018-04-17T16:50:52.808Z,1.75
2018-04-17T16:53:22.880Z,2.08
2018-04-17T16:55:52.945Z,1.90
2018-04-17T16:58:23.024Z,1.48
2018-04-17T17:00:52.912Z,1.80
2018-04-17T17:03:22.973Z,1.75
2018-04-17T17:05:53.029Z,1.77
2018-04-17T17:08:22.530Z,1.93
2018-04-17T17:10:51.802Z,1.50
2018-04-17T17:13:21.856Z,1.73
2018-04-17T17:15:51.383Z,1.70
2018-04-17T17:18:20.887Z,1.73
2018-04-17T17:20:50.396Z,1.97
2018-04-17T17:23:19.895Z,2.17
2018-04-17T17:25:49.405Z,1.77
2018-04-17T17:28:18.920Z,3.07
2018-04-17T17:30:49.004Z,2.62
2018-04-17T17:33:19.476Z,2.42
2018-04-17T17:35:49.390Z,2.60
2018-04-17T17:38:18.945Z,2.30
2018-04-17T17:40:48.623Z,2.30
2018-04-17T17:43:18.294Z,1.50
2018-04-17T17:45:47.782Z,2.17
2018-04-17T17:48:17.277Z,1.53
2018-04-17T17:50:46.778Z,1.70
2018-04-17T17:53:16.270Z,1.80
2018-04-17T17:55:45.792Z,1.70
2018-04-17T17:58:15.298Z,1.97
2018-04-17T18:00:44.564Z,1.70
2018-04-17T18:03:14.468Z,1.80
2018-04-17T18:05:44.174Z,1.50
2018-04-17T18:08:13.670Z,1.83
2018-04-17T18:10:43.171Z,2.23
2018-04-17T18:13:12.712Z,1.83
2018-04-17T18:15:42.376Z,1.87
2018-04-17T18:18:11.661Z,2.30
2018-04-17T18:20:41.176Z,1.70
2018-04-17T18:23:10.678Z,1.57
2018-04-17T18:25:40.177Z,2.20
2018-04-17T18:28:09.702Z,1.60
2018-04-17T18:30:39.014Z,1.83
2018-04-17T18:33:08.516Z,1.47
2018-04-17T18:35:38.011Z,1.80
2018-04-17T18:38:07.293Z,1.57
2018-04-17T18:40:36.811Z,2.33
2018-04-17T18:43:06.318Z,1.40
2018-04-17T18:45:35.829Z,2.00
2018-04-17T18:48:05.333Z,1.90
2018-04-17T18:50:34.842Z,1.80
2018-04-17T18:53:04.352Z,1.80
2018-04-17T18:55:33.853Z,1.67
2018-04-17T18:58:03.355Z,1.60
2018-04-17T19:00:32.851Z,1.50
2018-04-17T19:03:02.351Z,1.53
2018-04-17T19:05:31.853Z,1.67
2018-04-17T19:08:01.365Z,1.60
2018-04-17T19:10:30.653Z,1.80
2018-04-17T19:13:00.187Z,2.10
2018-04-17T19:15:29.700Z,2.17
2018-04-17T19:17:59.200Z,2.33
2018-04-17T19:20:28.698Z,2.67
2018-04-17T19:22:58.198Z,2.40
2018-04-17T19:25:27.717Z,2.30
2018-04-17T19:27:57.231Z,2.50
2018-04-17T19:30:26.520Z,2.40
2018-04-17T19:32:55.837Z,2.40
2018-04-17T19:35:25.506Z,2.40
2018-04-17T19:37:55.029Z,2.10
2018-04-17T19:40:24.598Z,2.00
2018-04-17T19:42:53.914Z,2.00
2018-04-17T19:45:23.517Z,2.30
2018-04-17T19:47:53.173Z,1.93
2018-04-17T19:50:22.670Z,2.40
2018-04-17T19:52:52.209Z,2.00
2018-04-17T19:55:22.107Z,1.90
2018-04-17T19:57:51.599Z,2.03
2018-04-17T20:00:21.107Z,2.63
2018-04-17T20:02:50.620Z,2.27
2018-04-17T20:05:20.172Z,2.50
2018-04-17T20:07:49.671Z,2.60
2018-04-17T20:10:19.174Z,2.43
2018-04-17T20:12:48.692Z,2.77
2018-04-17T20:15:18.204Z,2.43
2018-04-17T20:17:47.711Z,2.13
2018-04-17T20:20:17.245Z,1.87
2018-04-17T20:22:46.739Z,1.90
2018-04-17T20:25:16.249Z,2.37
2018-04-17T20:27:45.762Z,2.40
2018-04-17T20:30:15.275Z,2.13
2018-04-17T20:32:45.451Z,2.63
2018-04-17T20:35:14.963Z,2.13
2018-04-17T20:37:44.457Z,2.60
2018-04-17T20:40:13.747Z,2.43
2018-04-17T20:42:43.255Z,2.67
2018-04-17T20:45:12.521Z,2.70
2018-04-17T20:47:42.013Z,2.00
2018-04-17T20:50:11.315Z,2.17
2018-04-17T20:52:40.597Z,2.90
2018-04-17T20:55:09.877Z,2.63
2018-04-17T20:57:39.150Z,2.97
2018-04-17T21:00:09.075Z,2.70
2018-04-17T21:02:38.575Z,2.80
2018-04-17T21:05:08.465Z,2.77
2018-04-17T21:07:37.994Z,2.90
2018-04-17T21:10:07.554Z,3.00
2018-04-17T21:12:36.821Z,2.83
2018-04-17T21:15:06.339Z,2.83
2018-04-17T21:17:35.832Z,2.63
2018-04-17T21:20:05.355Z,2.60
2018-04-17T21:22:34.623Z,2.83
2018-04-17T21:25:04.283Z,3.07
2018-04-17T21:27:33.795Z,3.23
2018-04-17T21:30:03.303Z,2.97
2018-04-17T21:32:32.803Z,3.27
2018-04-17T21:35:02.312Z,3.13
2018-04-17T21:37:31.825Z,3.40
2018-04-17T21:40:01.082Z,3.20
2018-04-17T21:42:30.583Z,2.70
2018-04-17T21:45:00.301Z,3.13
2018-04-17T21:47:29.811Z,3.10
2018-04-17T21:49:59.303Z,3.10
2018-04-17T21:52:28.795Z,3.10
2018-04-17T21:54:58.316Z,3.20
2018-04-17T21:57:27.847Z,2.93
2018-04-17T21:59:57.547Z,2.73
2018-04-17T22:02:27.071Z,3.03
2018-04-17T22:04:56.573Z,3.00
2018-04-17T22:07:26.069Z,3.10
2018-04-17T22:09:55.586Z,3.30
2018-04-17T22:12:25.118Z,3.43
2018-04-17T22:14:54.621Z,2.90
2018-04-17T22:17:24.136Z,3.73
2018-04-17T22:19:53.416Z,3.30
2018-04-17T22:22:22.685Z,2.83
2018-04-17T22:24:51.951Z,4.33
2018-04-17T22:27:21.877Z,3.43
2018-04-17T22:29:51.382Z,3.20
2018-04-17T22:32:20.569Z,3.60
2018-04-17T22:34:50.461Z,3.60
2018-04-17T22:37:19.745Z,3.27
2018-04-17T22:39:49.051Z,3.40
2018-04-17T22:42:18.333Z,3.17
2018-04-17T22:44:47.653Z,3.43
2018-04-17T22:47:16.963Z,3.57
2018-04-17T22:49:46.234Z,3.17
2018-04-17T22:52:15.517Z,3.50
2018-04-17T22:54:45.100Z,3.53
2018-04-17T22:57:14.813Z,2.97
2018-04-17T22:59:44.108Z,4.00
2018-04-17T23:02:14.030Z,3.00
2018-04-17T23:04:43.948Z,3.30
2018-04-17T23:07:13.834Z,3.43
2018-04-17T23:09:43.353Z,3.13
2018-04-17T23:12:13.570Z,3.23
2018-04-17T23:14:43.486Z,3.10
2018-04-17T23:17:13.221Z,2.97
2018-04-17T23:19:42.731Z,3.37
2018-04-17T23:22:12.124Z,3.70
2018-04-17T23:24:42.047Z,3.13
2018-04-17T23:27:11.559Z,3.60
2018-04-17T23:29:41.094Z,3.67
2018-04-17T23:32:10.630Z,3.23
2018-04-17T23:34:40.560Z,3.63
2018-04-17T23:37:10.496Z,3.33
2018-04-17T23:39:39.331Z,3.90
2018-04-17T23:42:08.845Z,3.77
2018-04-17T23:44:38.395Z,4.10
2018-04-17T23:47:08.340Z,3.90
2018-04-17T23:49:38.097Z,4.10
2018-04-17T23:52:07.713Z,4.20
2018-04-17T23:54:37.629Z,5.00
2018-04-17T23:57:07.573Z,3.80
2018-04-17T23:59:37.109Z,4.20
